createdAt,value
2023-05-10T00:00:42.792Z,97.41
2023-05-10T00:03:13.294Z,97.56
2023-05-10T00:05:43.268Z,97.54
2023-05-10T00:08:13.281Z,97.49
2023-05-10T00:10:43.660Z,97.48
2023-05-10T00:13:14.093Z,97.53
2023-05-10T00:15:44.119Z,97.58
2023-05-10T00:18:14.507Z,98.10
2023-05-10T00:20:44.616Z,97.87
2023-05-10T00:23:14.979Z,97.92
2023-05-10T00:25:45.373Z,97.81
2023-05-10T00:28:15.742Z,98.13
2023-05-10T00:30:46.137Z,98.07
2023-05-10T00:33:16.510Z,98.31
2023-05-10T00:35:46.886Z,98.14
2023-05-10T00:38:17.026Z,98.08
2023-05-10T00:40:47.333Z,98.42
2023-05-10T00:43:17.705Z,98.49
2023-05-10T00:45:47.956Z,98.34
2023-05-10T00:48:18.232Z,98.52
2023-05-10T00:50:48.607Z,98.27
2023-05-10T00:53:18.962Z,98.25
2023-05-10T00:55:49.482Z,98.36
2023-05-10T00:58:19.836Z,98.70
2023-05-10T01:00:50.139Z,99.05
2023-05-10T01:03:20.398Z,99.60
2023-05-10T01:05:50.620Z,98.97
2023-05-10T01:08:20.999Z,100.00
2023-05-10T01:10:51.409Z,100.00
2023-05-10T01:13:22.090Z,100.00
2023-05-10T01:15:52.224Z,100.00
2023-05-10T01:18:22.635Z,100.00
2023-05-10T01:20:53.009Z,100.00
2023-05-10T01:23:23.401Z,100.00
2023-05-10T01:25:53.817Z,100.00
2023-05-10T01:28:24.293Z,100.00
2023-05-10T01:30:54.712Z,100.00
2023-05-10T01:33:25.107Z,100.00
2023-05-10T01:35:55.551Z,100.00
2023-05-10T01:38:25.631Z,100.00
2023-05-10T01:40:56.061Z,100.00
2023-05-10T01:43:26.478Z,100.00
2023-05-10T01:45:56.927Z,100.00
2023-05-10T01:48:27.377Z,100.00
2023-05-10T01:50:57.778Z,100.00
2023-05-10T01:53:28.226Z,100.00
2023-05-10T01:55:58.651Z,100.00
2023-05-10T01:58:28.988Z,100.00
2023-05-10T02:00:59.440Z,100.00
2023-05-10T02:03:29.914Z,100.00
2023-05-10T02:06:00.003Z,100.00
2023-05-10T02:08:30.417Z,100.00
2023-05-10T02:11:00.856Z,100.00
2023-05-10T02:13:31.372Z,100.00
2023-05-10T02:16:01.460Z,100.00
2023-05-10T02:18:32.105Z,100.00
2023-05-10T02:21:02.515Z,100.00
2023-05-10T02:23:33.225Z,100.00
2023-05-10T02:26:03.661Z,100.00
2023-05-10T02:28:34.089Z,100.00
2023-05-10T02:31:04.245Z,100.00
2023-05-10T02:33:34.257Z,100.00
2023-05-10T02:36:04.403Z,100.00
2023-05-10T02:38:34.851Z,100.00
2023-05-10T02:41:04.970Z,100.00
2023-05-10T02:43:35.124Z,100.00
2023-05-10T02:46:05.317Z,100.00
2023-05-10T02:48:35.468Z,100.00
2023-05-10T02:51:05.521Z,100.00
2023-05-10T02:53:35.655Z,100.00
2023-05-10T02:56:06.350Z,100.00
2023-05-10T02:58:36.460Z,100.00
2023-05-10T03:01:06.720Z,99.97
2023-05-10T03:03:37.464Z,99.85
2023-05-10T03:06:07.862Z,100.00
2023-05-10T03:08:38.002Z,100.00
2023-05-10T03:11:08.231Z,99.99
2023-05-10T03:13:38.296Z,99.69
2023-05-10T03:16:08.435Z,100.00
2023-05-10T03:18:38.525Z,99.64
2023-05-10T03:21:08.968Z,100.00
2023-05-10T03:23:38.984Z,99.98
2023-05-10T03:26:09.123Z,100.00
2023-05-10T03:28:39.235Z,99.89
2023-05-10T03:31:09.680Z,100.00
2023-05-10T03:33:40.090Z,99.83
2023-05-10T03:36:10.120Z,99.71
2023-05-10T03:38:40.509Z,99.45
2023-05-10T03:41:10.624Z,99.43
2023-05-10T03:43:40.966Z,99.70
2023-05-10T03:46:11.625Z,99.76
2023-05-10T03:48:41.545Z,99.28
2023-05-10T03:51:11.947Z,99.36
2023-05-10T03:53:42.314Z,99.93
2023-05-10T03:56:13.037Z,100.00
2023-05-10T03:58:43.318Z,100.00
2023-05-10T04:01:13.511Z,100.00
2023-05-10T04:03:44.005Z,100.00
2023-05-10T04:06:14.313Z,99.86
2023-05-10T04:08:44.364Z,99.81
2023-05-10T04:11:14.834Z,99.81
2023-05-10T04:13:45.396Z,99.93
2023-05-10T04:16:16.147Z,99.79
2023-05-10T04:18:46.329Z,100.00
2023-05-10T04:21:16.307Z,100.00
2023-05-10T04:23:47.096Z,100.00
2023-05-10T04:26:17.150Z,100.00
2023-05-10T04:28:47.185Z,100.00
2023-05-10T04:31:17.383Z,100.00
2023-05-10T04:33:47.467Z,100.00
2023-05-10T04:36:18.184Z,100.00
2023-05-10T04:38:48.466Z,99.78
2023-05-10T04:41:18.883Z,100.00
2023-05-10T04:43:49.026Z,100.00
2023-05-10T04:46:19.469Z,100.00
2023-05-10T04:48:49.789Z,100.00
2023-05-10T04:51:19.921Z,100.00
2023-05-10T04:54:01.568Z,100.00
2023-05-10T04:56:21.031Z,100.00
2023-05-10T04:58:51.453Z,100.00
2023-05-10T05:01:21.898Z,100.00
2023-05-10T05:03:52.016Z,100.00
2023-05-10T05:06:22.703Z,100.00
2023-05-10T05:08:53.073Z,100.00
2023-05-10T05:11:23.485Z,100.00
2023-05-10T05:13:53.880Z,100.00
2023-05-10T05:16:24.357Z,100.00
2023-05-10T05:18:54.725Z,100.00
2023-05-10T05:21:25.129Z,100.00
2023-05-10T05:23:55.536Z,100.00
2023-05-10T05:26:25.701Z,100.00
2023-05-10T05:28:56.095Z,100.00
2023-05-10T05:31:26.568Z,100.00
2023-05-10T05:33:57.123Z,100.00
2023-05-10T05:36:27.425Z,100.00
2023-05-10T05:38:57.839Z,100.00
2023-05-10T05:41:27.941Z,100.00
2023-05-10T05:43:58.174Z,100.00
2023-05-10T05:46:28.826Z,100.00
2023-05-10T05:48:58.941Z,100.00
2023-05-10T05:51:29.369Z,100.00
2023-05-10T05:53:59.518Z,100.00
2023-05-10T05:56:29.999Z,100.00
2023-05-10T05:59:00.128Z,100.00
2023-05-10T06:01:30.552Z,100.00
2023-05-10T06:04:00.713Z,100.00
2023-05-10T06:06:30.794Z,100.00
2023-05-10T06:09:01.329Z,100.00
2023-05-10T06:11:31.657Z,100.00
2023-05-10T06:14:02.353Z,100.00
2023-05-10T06:16:32.491Z,100.00
2023-05-10T06:19:02.579Z,100.00
2023-05-10T06:21:33.018Z,100.00
2023-05-10T06:24:03.449Z,100.00
2023-05-10T06:26:34.014Z,100.00
2023-05-10T06:29:04.604Z,100.00
2023-05-10T06:31:34.745Z,100.00
2023-05-10T06:34:04.840Z,100.00
2023-05-10T06:36:34.972Z,100.00
2023-05-10T06:39:05.383Z,100.00
2023-05-10T06:41:35.881Z,100.00
2023-05-10T06:44:06.147Z,99.84
2023-05-10T06:46:36.873Z,99.91
2023-05-10T06:49:07.303Z,100.00
2023-05-10T06:51:37.436Z,100.00
2023-05-10T06:54:08.027Z,100.00
2023-05-10T06:56:38.472Z,100.00
2023-05-10T06:59:08.617Z,100.00
2023-05-10T07:01:39.244Z,99.99
2023-05-10T07:04:10.018Z,100.00
2023-05-10T07:06:40.368Z,100.00
2023-05-10T07:09:10.439Z,100.00
2023-05-10T07:11:41.151Z,100.00
2023-05-10T07:14:11.577Z,99.88
2023-05-10T07:16:41.783Z,99.68
2023-05-10T07:19:12.155Z,100.00
2023-05-10T07:21:42.328Z,100.00
2023-05-10T07:24:12.689Z,99.87
2023-05-10T07:26:42.882Z,99.91
2023-05-10T07:29:13.269Z,100.00
2023-05-10T07:31:43.864Z,100.00
2023-05-10T07:34:14.541Z,100.00
2023-05-10T07:36:44.666Z,100.00
2023-05-10T07:39:21.370Z,100.00
2023-05-10T07:41:45.446Z,100.00
2023-05-10T07:44:15.549Z,100.00
2023-05-10T07:46:45.985Z,100.00
2023-05-10T07:49:16.622Z,100.00
2023-05-10T07:51:47.020Z,100.00
2023-05-10T07:54:17.151Z,99.86
2023-05-10T07:56:47.750Z,99.43
2023-05-10T07:59:18.171Z,99.65
2023-05-10T08:01:48.256Z,100.00
2023-05-10T08:04:18.418Z,99.44
2023-05-10T08:06:48.730Z,99.12
2023-05-10T08:09:19.381Z,99.64
2023-05-10T08:11:49.781Z,99.16
2023-05-10T08:14:20.169Z,99.57
2023-05-10T08:16:50.574Z,98.51
2023-05-10T08:19:20.955Z,98.53
2023-05-10T08:21:51.348Z,99.38
2023-05-10T08:24:21.467Z,98.90
2023-05-10T08:26:51.857Z,99.77
2023-05-10T08:29:22.245Z,99.84
2023-05-10T08:31:52.709Z,99.22
2023-05-10T08:34:23.356Z,99.73
2023-05-10T08:36:53.173Z,98.39
2023-05-10T08:39:30.365Z,98.26
2023-05-10T08:41:53.849Z,97.77
2023-05-10T08:44:24.319Z,96.91
2023-05-10T08:46:54.733Z,98.15
2023-05-10T08:49:25.026Z,97.47
2023-05-10T08:51:55.120Z,98.69
2023-05-10T08:54:25.770Z,97.75
2023-05-10T08:56:55.866Z,97.92
2023-05-10T08:59:26.213Z,97.99
2023-05-10T09:01:56.617Z,97.94
2023-05-10T09:04:27.192Z,97.30
2023-05-10T09:06:57.455Z,99.28
2023-05-10T09:09:27.782Z,96.84
2023-05-10T09:11:58.145Z,97.63
2023-05-10T09:14:28.228Z,98.22
2023-05-10T09:16:58.690Z,97.36
2023-05-10T09:19:28.997Z,95.56
2023-05-10T09:21:59.346Z,96.06
2023-05-10T09:24:29.704Z,95.66
2023-05-10T09:27:00.134Z,95.52
2023-05-10T09:29:30.473Z,94.42
2023-05-10T09:32:00.819Z,94.47
2023-05-10T09:34:30.903Z,93.70
2023-05-10T09:37:00.919Z,93.49
2023-05-10T09:39:31.383Z,93.31
2023-05-10T09:42:01.703Z,93.56
2023-05-10T09:44:32.019Z,92.92
2023-05-10T09:47:02.389Z,92.58
2023-05-10T09:49:32.761Z,91.67
2023-05-10T09:52:03.124Z,92.21
2023-05-10T09:54:33.474Z,92.78
2023-05-10T09:57:03.862Z,93.13
2023-05-10T09:59:34.205Z,93.24
2023-05-10T10:02:04.689Z,93.73
2023-05-10T10:04:34.993Z,92.56
2023-05-10T10:07:05.442Z,92.74
2023-05-10T10:09:35.415Z,93.71
2023-05-10T10:12:05.853Z,92.68
2023-05-10T10:14:36.171Z,93.56
2023-05-10T10:17:08.991Z,93.41
2023-05-10T10:19:37.381Z,93.04
2023-05-10T10:22:07.368Z,93.45
2023-05-10T10:24:37.706Z,94.65
2023-05-10T10:27:08.087Z,93.40
2023-05-10T10:29:38.434Z,92.85
2023-05-10T10:32:08.906Z,92.88
2023-05-10T10:34:39.487Z,92.14
2023-05-10T10:37:09.845Z,93.86
2023-05-10T10:39:40.184Z,93.21
2023-05-10T10:42:10.268Z,93.78
2023-05-10T10:44:40.396Z,93.22
2023-05-10T10:47:10.899Z,93.85
2023-05-10T10:49:41.044Z,93.86
2023-05-10T10:52:11.370Z,93.35
2023-05-10T10:54:41.750Z,93.35
2023-05-10T10:57:11.821Z,92.40
2023-05-10T10:59:42.147Z,93.02
2023-05-10T11:02:12.517Z,93.08
2023-05-10T11:04:42.904Z,93.65
2023-05-10T11:07:13.220Z,93.08
2023-05-10T11:09:43.551Z,94.03
2023-05-10T11:12:14.013Z,91.93
2023-05-10T11:14:44.253Z,92.34
2023-05-10T11:17:14.713Z,92.63
2023-05-10T11:19:44.962Z,92.42
2023-05-10T11:22:15.328Z,93.06
2023-05-10T11:24:45.397Z,93.65
2023-05-10T11:27:15.750Z,92.69
2023-05-10T11:29:45.751Z,92.59
2023-05-10T11:32:16.284Z,92.79
2023-05-10T11:34:46.192Z,92.78
2023-05-10T11:37:16.575Z,91.66
2023-05-10T11:39:46.876Z,91.66
2023-05-10T11:42:16.979Z,91.44
2023-05-10T11:44:47.302Z,92.44
2023-05-10T11:47:17.937Z,91.79
2023-05-10T11:49:48.334Z,92.42
2023-05-10T11:52:18.630Z,91.57
2023-05-10T11:54:48.871Z,90.61
2023-05-10T11:57:19.221Z,88.64
2023-05-10T11:59:49.556Z,89.42
2023-05-10T12:02:19.961Z,89.20
2023-05-10T12:04:50.290Z,90.30
2023-05-10T12:07:20.636Z,88.18
2023-05-10T12:09:50.952Z,88.12
2023-05-10T12:12:21.332Z,89.26
2023-05-10T12:14:51.706Z,88.10
2023-05-10T12:17:22.040Z,89.12
2023-05-10T12:19:52.392Z,88.55
2023-05-10T12:22:22.737Z,87.44
2023-05-10T12:24:53.087Z,87.45
2023-05-10T12:27:23.447Z,88.80
2023-05-10T12:29:53.811Z,87.48
2023-05-10T12:32:24.246Z,88.00
2023-05-10T12:34:54.574Z,88.76
2023-05-10T12:37:24.945Z,89.19
2023-05-10T12:39:55.224Z,88.31
2023-05-10T12:42:25.568Z,88.30
2023-05-10T12:44:55.621Z,89.50
2023-05-10T12:47:26.001Z,88.56
2023-05-10T12:49:56.313Z,88.45
2023-05-10T12:52:26.642Z,88.26
2023-05-10T12:54:56.970Z,88.44
2023-05-10T12:57:27.333Z,89.39
2023-05-10T12:59:57.639Z,87.66
2023-05-10T13:02:28.002Z,89.96
2023-05-10T13:04:58.300Z,88.67
2023-05-10T13:07:28.607Z,89.38
2023-05-10T13:09:58.915Z,88.35
2023-05-10T13:12:29.250Z,87.93
2023-05-10T13:14:59.563Z,87.30
2023-05-10T13:17:30.660Z,87.83
2023-05-10T13:20:00.263Z,87.74
2023-05-10T13:22:39.853Z,86.02
2023-05-10T13:25:00.841Z,85.53
2023-05-10T13:27:31.172Z,85.21
2023-05-10T13:30:01.512Z,83.78
2023-05-10T13:32:31.859Z,86.30
2023-05-10T13:35:02.132Z,87.13
2023-05-10T13:37:32.436Z,86.30
2023-05-10T13:40:02.866Z,87.24
2023-05-10T13:42:33.095Z,87.32
2023-05-10T13:45:03.529Z,86.90
2023-05-10T13:47:33.790Z,85.49
2023-05-10T13:50:04.058Z,85.67
2023-05-10T13:52:34.340Z,85.37
2023-05-10T13:55:04.719Z,84.78
2023-05-10T13:57:34.705Z,86.29
2023-05-10T14:00:05.046Z,86.41
2023-05-10T14:02:35.402Z,86.92
2023-05-10T14:05:05.702Z,85.45
2023-05-10T14:07:35.976Z,86.00
2023-05-10T14:10:06.325Z,85.70
2023-05-10T14:12:36.666Z,85.40
2023-05-10T14:15:07.016Z,85.51
2023-05-10T14:17:37.268Z,85.37
2023-05-10T14:20:07.564Z,85.27
2023-05-10T14:22:37.882Z,85.90
2023-05-10T14:25:08.300Z,85.44
2023-05-10T14:27:38.625Z,86.20
2023-05-10T14:30:08.839Z,85.72
2023-05-10T14:32:39.224Z,85.56
2023-05-10T14:35:12.121Z,86.62
2023-05-10T14:37:39.811Z,85.72
2023-05-10T14:40:10.143Z,85.16
2023-05-10T14:42:40.485Z,84.39
2023-05-10T14:45:11.418Z,85.60
2023-05-10T14:47:41.730Z,84.95
2023-05-10T14:50:21.489Z,84.45
2023-05-10T14:52:42.922Z,83.78
2023-05-10T14:55:13.262Z,85.05
2023-05-10T14:57:43.589Z,85.45
2023-05-10T15:00:13.950Z,85.16
2023-05-10T15:02:44.886Z,85.83
2023-05-10T15:05:15.398Z,85.16
2023-05-10T15:07:45.539Z,85.07
2023-05-10T15:10:15.825Z,84.10
2023-05-10T15:12:46.161Z,82.79
2023-05-10T15:15:16.647Z,84.65
2023-05-10T15:17:46.914Z,84.09
2023-05-10T15:20:17.303Z,85.19
2023-05-10T15:22:48.034Z,86.15
2023-05-10T15:25:18.670Z,86.28
2023-05-10T15:27:48.686Z,84.91
2023-05-10T15:30:18.990Z,85.79
2023-05-10T15:32:49.381Z,85.88
2023-05-10T15:35:19.679Z,85.85
2023-05-10T15:37:49.994Z,86.17
2023-05-10T15:40:20.327Z,86.68
2023-05-10T15:42:50.655Z,84.24
2023-05-10T15:45:21.199Z,85.26
2023-05-10T15:47:51.577Z,85.54
2023-05-10T15:50:21.617Z,83.61
2023-05-10T15:52:51.670Z,85.42
2023-05-10T15:55:21.978Z,85.00
2023-05-10T15:57:52.318Z,84.05
2023-05-10T16:00:22.647Z,82.78
2023-05-10T16:02:53.082Z,83.07
2023-05-10T16:05:23.314Z,83.65
2023-05-10T16:07:53.636Z,83.87
2023-05-10T16:10:23.963Z,84.79
2023-05-10T16:12:54.417Z,83.98
2023-05-10T16:15:24.633Z,82.64
2023-05-10T16:17:55.228Z,83.57
2023-05-10T16:20:25.347Z,83.99
2023-05-10T16:22:55.661Z,84.80
2023-05-10T16:25:26.018Z,85.21
2023-05-10T16:27:56.348Z,85.50
2023-05-10T16:30:26.958Z,85.97
2023-05-10T16:32:57.250Z,86.44
2023-05-10T16:35:27.853Z,86.11
2023-05-10T16:37:57.970Z,87.03
2023-05-10T16:40:28.377Z,87.00
2023-05-10T16:42:58.548Z,86.38
2023-05-10T16:45:28.920Z,87.71
2023-05-10T16:47:59.793Z,87.14
2023-05-10T16:50:30.245Z,86.77
2023-05-10T16:53:00.964Z,86.75
2023-05-10T16:55:31.861Z,86.61
2023-05-10T16:58:02.190Z,86.57
2023-05-10T17:00:32.509Z,85.81
2023-05-10T17:03:03.562Z,85.18
2023-05-10T17:05:33.777Z,85.30
2023-05-10T17:08:04.559Z,84.88
2023-05-10T17:10:34.478Z,84.98
2023-05-10T17:13:04.808Z,85.29
2023-05-10T17:15:35.237Z,85.12
2023-05-10T17:18:05.588Z,84.67
2023-05-10T17:20:35.947Z,84.46
2023-05-10T17:23:06.244Z,84.53
2023-05-10T17:25:36.800Z,85.67
2023-05-10T17:28:06.963Z,86.17
2023-05-10T17:30:37.336Z,86.35
2023-05-10T17:33:07.372Z,86.36
2023-05-10T17:35:37.783Z,86.38
2023-05-10T17:38:08.134Z,86.55
2023-05-10T17:40:38.448Z,86.70
2023-05-10T17:43:08.750Z,86.57
2023-05-10T17:45:39.122Z,86.46
2023-05-10T17:48:09.480Z,86.82
2023-05-10T17:50:39.826Z,86.77
2023-05-10T17:53:10.143Z,87.23
2023-05-10T17:55:40.483Z,86.14
2023-05-10T17:58:10.850Z,86.50
2023-05-10T18:00:41.228Z,86.92
2023-05-10T18:03:11.295Z,87.18
2023-05-10T18:05:41.705Z,87.40
2023-05-10T18:08:12.011Z,87.54
2023-05-10T18:10:42.362Z,87.60
2023-05-10T18:13:12.427Z,87.10
2023-05-10T18:15:42.809Z,87.32
2023-05-10T18:18:13.104Z,87.18
2023-05-10T18:20:43.437Z,87.57
2023-05-10T18:23:13.750Z,87.15
2023-05-10T18:25:44.163Z,87.03
2023-05-10T18:28:14.407Z,86.89
2023-05-10T18:30:45.416Z,86.87
2023-05-10T18:33:15.634Z,86.77
2023-05-10T18:35:46.074Z,86.66
2023-05-10T18:38:16.326Z,86.64
2023-05-10T18:40:46.736Z,86.80
2023-05-10T18:43:17.553Z,86.84
2023-05-10T18:45:48.492Z,86.91
2023-05-10T18:48:18.777Z,87.05
2023-05-10T18:50:49.126Z,86.96
2023-05-10T18:53:19.648Z,86.99
2023-05-10T18:55:49.751Z,87.01
2023-05-10T18:58:20.074Z,86.77
2023-05-10T19:00:50.435Z,86.70
2023-05-10T19:03:20.814Z,86.51
2023-05-10T19:05:50.830Z,86.67
2023-05-10T19:08:21.192Z,86.71
2023-05-10T19:10:51.525Z,86.48
2023-05-10T19:13:21.871Z,86.49
2023-05-10T19:15:52.205Z,86.61
2023-05-10T19:18:22.640Z,86.53
2023-05-10T19:20:54.417Z,86.64
2023-05-10T19:23:24.979Z,86.74
2023-05-10T19:25:54.175Z,86.75
2023-05-10T19:28:24.387Z,86.80
2023-05-10T19:30:55.136Z,86.76
2023-05-10T19:33:25.713Z,86.89
2023-05-10T19:35:56.600Z,87.27
2023-05-10T19:38:26.927Z,87.56
2023-05-10T19:40:57.288Z,87.38
2023-05-10T19:43:27.594Z,87.28
2023-05-10T19:45:57.854Z,87.33
2023-05-10T19:48:28.257Z,87.35
2023-05-10T19:50:58.545Z,87.63
2023-05-10T19:53:28.654Z,88.06
2023-05-10T19:55:58.908Z,88.36
2023-05-10T19:58:28.977Z,88.22
2023-05-10T20:00:59.392Z,88.11
2023-05-10T20:03:29.718Z,87.99
2023-05-10T20:06:00.054Z,87.92
2023-05-10T20:08:30.376Z,87.97
2023-05-10T20:11:00.771Z,88.41
2023-05-10T20:13:31.101Z,88.62
2023-05-10T20:16:01.471Z,88.82
2023-05-10T20:18:31.589Z,89.02
2023-05-10T20:21:01.655Z,89.15
2023-05-10T20:23:31.906Z,89.49
2023-05-10T20:26:02.014Z,89.62
2023-05-10T20:28:32.658Z,89.29
2023-05-10T20:31:03.109Z,89.16
2023-05-10T20:33:33.424Z,89.10
2023-05-10T20:36:03.800Z,90.21
2023-05-10T20:38:34.416Z,90.49
2023-05-10T20:41:04.870Z,90.09
2023-05-10T20:43:34.882Z,89.91
2023-05-10T20:46:05.532Z,90.18
2023-05-10T20:48:35.641Z,90.39
2023-05-10T20:51:06.071Z,90.33
2023-05-10T20:53:36.416Z,90.18
2023-05-10T20:56:06.796Z,90.64
2023-05-10T20:58:37.250Z,90.76
2023-05-10T21:01:07.619Z,90.79
2023-05-10T21:03:38.008Z,91.11
2023-05-10T21:06:08.331Z,91.26
2023-05-10T21:08:38.462Z,91.58
2023-05-10T21:11:08.501Z,91.90
2023-05-10T21:13:39.000Z,92.28
2023-05-10T21:16:09.087Z,91.93
2023-05-10T21:18:39.276Z,92.07
2023-05-10T21:21:09.545Z,92.26
2023-05-10T21:23:39.578Z,92.25
2023-05-10T21:26:09.683Z,91.71
2023-05-10T21:28:40.285Z,91.50
2023-05-10T21:31:10.468Z,91.29
2023-05-10T21:33:40.872Z,91.20
2023-05-10T21:36:11.559Z,91.15
2023-05-10T21:38:41.561Z,91.30
2023-05-10T21:41:11.945Z,91.57
2023-05-10T21:43:42.070Z,91.82
2023-05-10T21:46:12.785Z,91.66
2023-05-10T21:48:42.824Z,92.24
2023-05-10T21:51:13.145Z,91.90
2023-05-10T21:53:43.551Z,91.75
2023-05-10T21:56:13.652Z,91.53
2023-05-10T21:58:43.756Z,91.56
2023-05-10T22:01:14.206Z,91.47
2023-05-10T22:03:44.813Z,91.52
2023-05-10T22:06:15.212Z,91.54
2023-05-10T22:08:45.541Z,91.56
2023-05-10T22:11:15.931Z,91.67
2023-05-10T22:13:46.062Z,91.88
2023-05-10T22:16:16.780Z,91.74
2023-05-10T22:18:47.512Z,91.89
2023-05-10T22:21:17.432Z,91.87
2023-05-10T22:23:48.130Z,91.55
2023-05-10T22:26:18.522Z,91.58
2023-05-10T22:28:48.909Z,91.41
2023-05-10T22:31:19.393Z,91.13
2023-05-10T22:33:49.499Z,91.72
2023-05-10T22:36:19.802Z,92.07
2023-05-10T22:38:49.857Z,91.65
2023-05-10T22:41:20.244Z,91.64
2023-05-10T22:43:50.719Z,91.93
2023-05-10T22:46:21.089Z,92.28
2023-05-10T22:48:51.165Z,92.87
2023-05-10T22:51:21.662Z,92.67
2023-05-10T22:53:51.972Z,92.33
2023-05-10T22:56:22.363Z,92.63
2023-05-10T22:58:52.901Z,92.40
2023-05-10T23:01:22.907Z,93.15
2023-05-10T23:03:53.309Z,93.14
2023-05-10T23:06:23.693Z,93.59
2023-05-10T23:08:54.119Z,93.66
2023-05-10T23:11:24.503Z,93.70
2023-05-10T23:13:55.138Z,93.72
2023-05-10T23:16:25.691Z,94.04
2023-05-10T23:18:56.124Z,94.18
2023-05-10T23:21:26.083Z,94.11
2023-05-10T23:23:56.321Z,94.10
2023-05-10T23:26:27.366Z,94.27
2023-05-10T23:28:56.698Z,94.64
2023-05-10T23:31:27.426Z,94.39
2023-05-10T23:33:57.811Z,94.53
2023-05-10T23:36:28.559Z,94.30
2023-05-10T23:38:58.970Z,94.47
2023-05-10T23:41:29.610Z,94.82
2023-05-10T23:44:00.162Z,94.55
2023-05-10T23:46:30.075Z,95.05
2023-05-10T23:49:00.876Z,95.16
2023-05-10T23:51:31.167Z,95.22
2023-05-10T23:54:01.435Z,95.21
2023-05-10T23:56:31.720Z,95.32
2023-05-10T23:59:02.360Z,95.84
